Englewood, CO (80110)

1:18 PM MDT on October 23, 2014 (GMT -0600)
South Broadway Heights | Change Station
CLOSE
Current Station
Personal Weather Station
Location: Englewood, CO
Elevation: 5387 ft
Nearby Weather Stations

Elev 5387 ft 39.65 °N, 104.98 °W | Updated 23 seconds ago

Partly Cloudy
Partly Cloudy
73.4 °F
Feels Like 75 °F
N
0.0
Wind Variable Wind from SSE
Gusts 1.0 mph

Today
High -- | Low -- °F
--% Chance of Precip.
Yesterday
High -- | Low -- °F
Precip. -- in
7:18 AM 6:09 PM
Waning Crescent, 0% visible
Pressure 30.05 in
Visibility 10.0 miles
Clouds Few 15000 ft
Scattered Clouds 22000 ft
Mostly Cloudy 25000 ft
Heat Index 75 °F
Dew Point 30 °F
Humidity 20%
Rainfall 0.00 in
Snow Depth Not available.
UV 3 out of 12
Pollen 2.50 out of 12
Ozone Good
PM2.5 Good
Flu Activity Sporadic
METAR KAPA 231853Z 33003KT 10SM FEW150 SCT220 BKN250 21/M03 A3017 RMK AO2 SLP175 ACSL DSNT SW-NW T02061033

More Conditions Fewer Conditions

Pressure 30.05 in
Visibility 10.0 miles
Clouds Few 15000 ft
Scattered Clouds 22000 ft
Mostly Cloudy 25000 ft
Heat Index 75 °F
Dew Point 30 °F
Humidity 20%
Rainfall 0.00 in
Snow Depth Not available.
UV 3 out of 12
Pollen 2.50 out of 12
Ozone Good
PM2.5 Good
Flu Activity Sporadic
METAR KAPA 231853Z 33003KT 10SM FEW150 SCT220 BKN250 21/M03 A3017 RMK AO2 SLP175 ACSL DSNT SW-NW T02061033

More Conditions Fewer Conditions

10-Day Weather Forecast

Almanac

Astronomy

Oct. 23, 2014 Rise Set
Actual Time 7:18 AM MDT 6:09 PM MDT
Civil Twilight 6:51 AM MDT 6:36 PM MDT
Nautical Twilight 6:19 AM MDT 7:08 PM MDT
Astronomical Twilight 5:48 AM MDT 7:39 PM MDT
Moon 7:00 AM MDT 6:12 PM MDT
Length of Visible Light 11h 45m
Length of Day
10h 50m
Tomorrow will be 2m 25s shorter.
Waning Crescent, 0% of the Moon is Illuminated
Today
Waning Crescent
Oct 23
New
Oct 30
First Quarter
Nov 6
Full
Nov 14
Last Quarter

Today's Extremes

State Highs State Lows

Community

WunderPhotos

Upload Photos

1,764,346 photos uploaded!

WunderBlogs® & News

By Dr. Jeff Masters
Director of Meteorology, Weather Underground
By Kari Strenfel
Meteorologist, Weather Underground
By Christopher C. Burt
Weather Historian, Weather Underground
October 23, 2014
October 23, 2014
October 23, 2014

Nearby

Air Quality

  Air Quality AQ Index Pollutant
Yesterday Good
OZONE
Yesterday Good
PM10
Current Good
OZONE
Current Good
PM2.5
Thursday Good
OZONE
Thursday Good
PM2.5

Snow Depth

Station Depth Elevation
Echo Lake 0 in 10600 ft
Lake Eldora 0 in 9700 ft
Niwot 0 in 9910 ft
University Camp 0 in 10300 ft
Berthoud Summit 0 in 11300 ft

Earthquake Activity

City Distance Mag. Time & Date
No recent earthquake activity has been reported nearby.
Minimum magnitude displayed is 2.5.

Coastal Water Temperatures

Place Temperature
No Stations Reporting

Nearby Weather Stations